Dutch
Home     News     Corporate     Events & Tours     Flight ops     Crew centre      
My transavia virtual    Join us    Last logs    Who is flying    Software    Training    VRTS     
 

view flightdata
view flightplan
view OFP
view flightlog



flightdata:
pilot: Edward van Hooff
flight: TRA6176
from: EGKK (London Gatwick)
to: EHRD (Rotterdam)
date: 17-06-2019
departure: 18:25z
arrival: 19:22z
duration: 0:56
aircraft: B737 (PHXRA)
distance: 206 NM
touchdown: -251 ft/m @ 131 KIAS



flightplan:
-(FPL-TRA6176-IS
-B737/M-SDEFGHIJRWXYZ/LB1
-EGKK1815
-N0367F190 CLN L620 REDFA
-EHRD0043 EHAM
-PBN/A1B1C1D1L1O1S1 DOF/190617 REG/PHXRA EET/EHAA0024 SEL/JQEL RVR/200 OPR/TRA)



operational flightplan (OFP):
DISPATCH BRIEFING (TEL:
--------- --------- --------- --------- --------- --------- ---------  
PREDEPARTURE ATC CLEARANCE:
.
.
--------- --------- --------- --------- --------- --------- ---------  
OFP  1    17 JUN 19/17:46
                                    OBS  2807

TRA6176    C/S TRA5575  EGKK/LGW   EHRD/RTM         CRZ SYS     CI 14
17 JUN 19  PH-XRA       1020/1020  1113/1118        GND DIST      219
           TAB:.....    CTOT:....  STA  1120        AIR DIST      219
                                                    AVG W/C         0
MAXIMUM    ZFW  55202  LAW  58604  TOW  64495       AVG ISA       M08
ESTIMATED  ZFW  54220  LAW  56780  TOW  58548       F-F FACTOR    0.0
ACTUAL     ZFW  .....  LAW  .....  TOW  .....
--------- --------- --------- --------- --------- --------- ---------
TRIP        1768   0043           .....  .....
CONT         169   0005           .....  .....
ALTN         740   0017  EHAM     .....  .....  ....
FINAL       1014   0030           .....  .....
ADDNL        637   0019           .....  .....
TANKERING                  
PLN TOF     3691   0135
DIFF        ....   ....
PLN TOF     ....   ....  (CORRECTED)   
EXTRA          0   ....                  
TOF         3691   ....                 
TAXI         200   ....                  
BLOCK       4528   ....        
--------- --------- --------- --------- --------- --------- ---------
REASON EXTRA FUEL      MATRIX FUEL:
O ECN-ECONAMICAL     O TMP-TEMPORARILY      O ATC-AIR TRAFFIC CNTRL
O FOB-FUEL ON.BOARD  O MSC-MISCELLANEOUS    O FPC-FLIGHT PLN CORR
O WXR-WEATHER        O TEC-TECHNICAL        ACT.CI/CRZ USED: . . .   

--------- --------- --------- --------- --------- --------- ---------

ZFW ZFW 1000 : PLN TOF   XXXXX/TRIP XXXXX 00 MIN HOLD DEST: 0 EXTRA
ZFW ZFW-1000 : PLN TOF   XXXXX/TRIP XXXXX
--------- --------- --------- --------- --------- --------- ---------
COMMANDERS NAME:                           SIGNATURE:

--------- --------- --------- --------- --------- --------- ---------
FROM:  EGKK ELEV203      TO: EHRD ELEV-14        ALTN: EHAM ELEV -11
ATC C/S     : TRA55TRA6176            AVG ISA : M08
CO-ROUTE    :                        AVG TT  :   
FMC-RES FUEL: 1754                   AVG W/C :    0
CRZ ALT     : FL190                  FL310
CI          : CI 14                  FL200     360/000
                                     FL100

EGKK/08R N0367F190 CLN2Z CLN L620 REDFA REDF2R EHRD/24

--------- --------- --------- --------- --------- --------- ---------
.
.
--------- --------- --------- --------- --------- --------- ---------
RVSM ALT CHECK:  FL:...... LEFT: ...... STBY: ...... RIGHT: ......

--------- --------- --------- --------- --------- --------- ---------
DESTINATION ALTERNATE EHAM
--------- --------- --------- --------- --------- --------- ---------

--------- --------- --------- --------- --------- --------- ---------
--------- --------- --------- --------- --------- --------- ---------
ALTERNATE SUMMARY
--------- --------- --------- --------- --------- --------- ---------
      ALTN        DIST   LVL       WC TIME  FUEL VIA
      EHAM/27       64  FL090    0 0017   740 STD DCT AMS
INFO/EBOS/26       78  FL120    0 0019   834 COST1B COA COA3A
INFO/EBBR/25L      86  FL140    0 0021   899 WOOD1B WOODY WODY7A
INFO/EHBK/21      118  FL070    0 0028  1191 INKE1B INKET P57 OSGOS
                                           OSGO1M
--------- --------- --------- --------- --------- --------- ---------


-(FPL-TRA6176-IS
-B737/M-SDEFGHIJRWXYZ/LB1
-EGKK1815
-N0367F190 CLN L620 REDFA
-EHRD0043 EHAM
-PBN/A1B1C1D1L1O1S1 DOF/190617 REG/PHXRA EET/EHAA0024 SEL/JQEL RVR/200 OPR/TRA)

WEATHER BRIEFING - GENERATED 17 JUN 2019 17:46 UTC
--------------------------------------------------------------------------------

EGKK EHRD EHAM EBOS EBBR EHBK

--------------------------------------------------------------------------------
ORIGIN: EGKK (LONDON GATWICK)
--------------------------------------------------------------------------------
EGKK 171720Z 20009KT 160V240 9999 FEW036 18/11 Q1017

EGKK 171100Z 1712/1818 20010KT 9999 FEW025
      BECMG 1722/1801 VRB03KT
      TEMPO 1800/1806 8000 PROB30 1802/1805 0300 FG VV/// PROB40
      TEMPO 1811/1818 4000 RA SHRA


--------------------------------------------------------------------------------
DESTINATION: EHRD (ROTTERDAM)
--------------------------------------------------------------------------------
EHRD 171725Z AUTO 35005KT 290V040 9999 FEW049 23/14 Q1017 NOSIG

EHRD 171055Z 1712/1818 19012KT 9999 SCT035
      BECMG 1715/1718 31007KT
      BECMG 1719/1722 VRB03KT CAVOK
      BECMG 1815/1818 06008KT


--------------------------------------------------------------------------------
ALTERNATE: EHAM (SCHIPHOL)
--------------------------------------------------------------------------------
EHAM 171725Z 31006KT 280V350 9999 FEW040 23/14 Q1017 NOSIG

EHAM 171055Z 1712/1818 19012KT 9999 SCT035
      BECMG 1714/1717 31007KT
      BECMG 1719/1722 VRB03KT CAVOK
      BECMG 1815/1818 06008KT


--------------------------------------------------------------------------------
ALTERNATE: EBOS (OSTEND)
--------------------------------------------------------------------------------
EBOS 171720Z 34005KT 310V010 9999 FEW040 18/12 Q1018 NOSIG

EBOS 171110Z 1712/1818 31008KT SCT030 PROB30
      TEMPO 1815/1818 SHRA TSRA


--------------------------------------------------------------------------------
ALTERNATE: EBBR (BRUSSELS)
--------------------------------------------------------------------------------
EBBR 171720Z 35003KT 290V020 CAVOK 24/14 Q1017 NOSIG

EBBR 171110Z 1712/1818 19005KT CAVOK=  EDSB 171100Z 1712/1812 02012KT 9999 FEW040
      BECMG 1718/1720 03005KT


--------------------------------------------------------------------------------
ALTERNATE: EHBK (MAASTRICHT)
--------------------------------------------------------------------------------
EHBK 171725Z AUTO 07004KT 030V110 9999 NCD 26/13 Q1017 NOSIG

EHBK 171100Z 1712/1818 16004KT CAVOK


NOTAM BRIEFING - GENERATED 17 JUN 2019 17:46 UTC
--------------------------------------------------------------------------------

EGKK EHRD EHAM EHAM EBOS EBBR EHBK

--------------------------------------------------------------------------------
GLOBAL TRANSAVIA.COM VIRTUAL NOTAMS
--------------------------------------------------------------------------------
REF:NIL PLEASE CONTACT OPERATIONS IN CASE OF STRUCTURAL FLIGHTPLAN ERRORS ON FLIGHT-OPS@TRANSAVIA-VIRTUAL.COM
VALID:UFN

REF:NIL
PLEASE CHECK ACARS EVERY 10 MINUTES WHEN FLYING WITH SOUND OFF. AN NEW ACARS MESSAGE PRODUCE A SOUND SIGNAL UNTILL ITS READ. FLOWCONTROL DON'T RECEIVE MUCH REACTION ON OUTGOING ACARS MESSAGES ACCORDING FLIGHTSTATUS.
SOURCE: SPL/HV/OCC/
END VALID: UFN

REF:NIL
PLEASE CONTACT FLOWCONTROL IN CASE OF PROBLEMS WITH ROUTINGS
SOURCE: SPL/HV/OCC/
END VALID: UFN

REF:NIL
IN CASE OF ENGINE-OUT FLY V2 OR V2 20 MAX. UNTIL ABOVE MSA.
LEVEL-OFF AT AN ALTITUDE ROUNDED OFF TO THE FIRST 1000 FT OF THE HIGHEST MSA.
E.G: MSA EHAM; 1.7 AND 2.3 LEVEL-OFF 3000 FT. AFTER LANDING MAKE A REP TO OCC ON 131.975
SOURCE:SPL/HV/OCC
END VALID:UFN



flightlog:
Pilot : Edward van Hooff
Flight: TRA6176
From  : EGKK London Gatwick
To    : EHRD Rotterdam

[FLIGHTLOG] 1.5.4
17-06-2019 17:58:32z, logging started
17-06-2019 18:13:18z, pos report: 005 KIAS, 00 204 ft, heading 165, winds 220 @ 08 kts
17-06-2019 18:25:36z, parking brake released
17-06-2019 18:27:42z, flaps set to 13%
17-06-2019 18:27:49z, flaps set to 25%
17-06-2019 18:27:53z, flaps set to 38%
17-06-2019 18:28:19z, pos report: 006 KIAS, 00 204 ft, heading 257, winds 220 @ 08 kts
17-06-2019 18:35:21z, take-off at 151 KIAS
17-06-2019 18:35:21z, pos report: 151 KIAS, 00 209 ft, heading 257, winds 220 @ 08 kts
17-06-2019 18:35:21z, flying online @ VATSIM (TRA76A)
17-06-2019 18:35:21z, position: EGKK - London Gatwick
17-06-2019 18:35:28z, retracted gear at 159 KIAS and 156 ft AGL
17-06-2019 18:38:40z, flaps set to 25%
17-06-2019 18:38:44z, flaps set to 13%
17-06-2019 18:38:51z, flaps set to 0%
17-06-2019 18:43:20z, pos report: 290 KIAS, 15 712 ft, heading 055, winds 224 @ 33 kts
17-06-2019 18:58:21z, pos report: 251 KIAS, 17 921 ft, heading 121, winds 222 @ 36 kts
17-06-2019 19:08:59z, deployed spoilers
17-06-2019 19:09:10z, below glideslope
17-06-2019 19:10:38z, retracted spoilers
17-06-2019 19:11:37z, flaps set to 13%
17-06-2019 19:11:46z, flaps set to 25%
17-06-2019 19:11:49z, flaps set to 38%
17-06-2019 19:11:53z, intercepted localizer
17-06-2019 19:11:58z, flaps set to 50%
17-06-2019 19:12:02z, flaps set to 62%
17-06-2019 19:12:04z, lowered gear at 160 KIAS and 2520 ft AGL
17-06-2019 19:12:41z, on glideslope
17-06-2019 19:12:44z, flaps set to 75%
17-06-2019 19:12:47z, flaps set to 87%
17-06-2019 19:13:22z, pos report: 138 KIAS, 02 073 ft, heading 055, winds 352 @ 05 kts
17-06-2019 19:16:02z, below glideslope
17-06-2019 19:16:19z, touchdown: -251ft/m at 131 KIAS
17-06-2019 19:16:19z, pos report: 131 KIAS, -00 006 ft, heading 051, winds 021 @ 04 kts
17-06-2019 19:16:19z, flying online @ VATSIM (TRA76A)
17-06-2019 19:16:19z, position: EHRD - Rotterdam
17-06-2019 19:16:21z, deployed spoilers
17-06-2019 19:18:19z, flaps set to 75%
17-06-2019 19:18:21z, retracted spoilers
17-06-2019 19:18:23z, flaps set to 62%
17-06-2019 19:18:26z, flaps set to 50%
17-06-2019 19:18:29z, flaps set to 38%
17-06-2019 19:18:33z, flaps set to 25%
17-06-2019 19:18:36z, flaps set to 13%
17-06-2019 19:18:45z, flaps set to 0%
17-06-2019 19:22:19z, parking brake set
17-06-2019 19:24:14z, logging ended

©2009-2021, transavia virtual. All rights reserved. This website is only meant for simulation purposes.
This website is not owned by transavia, nor is transavia responsible for the content of this website.